Terminal Aerodrome Forecast
Issued by NWS Pocatello, ID

Home | Current Version | Previous Version | Text Only | Print | Product List | Glossary On
Versions: 1 2 3 4 5 6 7 8 9 10 11 12 13 14 15
433
FTUS45 KPIH 211720
TAFBYI
TAF
KBYI 211720Z 2118/2218 25015KT P6SM FEW025 SCT040 SCT100
     FM212100 26015G25KT P6SM BKN060 BKN100 OVC140
     FM220000 27010KT P6SM VCSH BKN040 OVC070
     FM220300 21008KT P6SM -SHRA SCT025 OVC040
     FM220600 19008KT P6SM SCT025 OVC040=

USA.gov is the U.S. government's official web portal to all federal, state and local government web resources and services.